sensor_id;sensor_type;location;lat;lon;timestamp;P1;durP1;ratioP1;P2;durP2;ratioP2
72924;SDS011;61070;50.794;7.054;2023-02-28T00:00:17;9.13;;;3.58;;
72924;SDS011;61070;50.794;7.054;2023-02-28T00:02:42;6.20;;;3.25;;
72924;SDS011;61070;50.794;7.054;2023-02-28T00:05:09;6.97;;;3.05;;
72924;SDS011;61070;50.794;7.054;2023-02-28T00:07:37;6.68;;;3.45;;
72924;SDS011;61070;50.794;7.054;2023-02-28T00:10:03;12.95;;;3.60;;
72924;SDS011;61070;50.794;7.054;2023-02-28T00:12:31;10.90;;;3.50;;
72924;SDS011;61070;50.794;7.054;2023-02-28T00:14:57;7.60;;;3.25;;
72924;SDS011;61070;50.794;7.054;2023-02-28T00:17:22;7.30;;;3.40;;
72924;SDS011;61070;50.794;7.054;2023-02-28T00:19:48;6.40;;;3.40;;
72924;SDS011;61070;50.794;7.054;2023-02-28T00:22:14;11.73;;;3.28;;
72924;SDS011;61070;50.794;7.054;2023-02-28T00:24:41;6.93;;;2.60;;
72924;SDS011;61070;50.794;7.054;2023-02-28T00:27:06;7.07;;;2.97;;
72924;SDS011;61070;50.794;7.054;2023-02-28T00:29:32;5.30;;;2.70;;
72924;SDS011;61070;50.794;7.054;2023-02-28T00:31:57;6.85;;;2.67;;
72924;SDS011;61070;50.794;7.054;2023-02-28T00:34:22;6.47;;;2.60;;
72924;SDS011;61070;50.794;7.054;2023-02-28T00:36:48;8.40;;;3.22;;
72924;SDS011;61070;50.794;7.054;2023-02-28T00:39:16;7.10;;;2.90;;
72924;SDS011;61070;50.794;7.054;2023-02-28T00:41:41;6.40;;;2.33;;
72924;SDS011;61070;50.794;7.054;2023-02-28T00:44:07;4.13;;;2.55;;
72924;SDS011;61070;50.794;7.054;2023-02-28T00:46:32;8.23;;;3.45;;
72924;SDS011;61070;50.794;7.054;2023-02-28T00:48:57;6.70;;;3.00;;
72924;SDS011;61070;50.794;7.054;2023-02-28T00:51:23;4.93;;;2.70;;
72924;SDS011;61070;50.794;7.054;2023-02-28T00:53:48;10.02;;;2.60;;
72924;SDS011;61070;50.794;7.054;2023-02-28T00:56:14;6.72;;;3.08;;
72924;SDS011;61070;50.794;7.054;2023-02-28T00:58:39;8.25;;;2.83;;
72924;SDS011;61070;50.794;7.054;2023-02-28T01:01:04;7.03;;;2.75;;
72924;SDS011;61070;50.794;7.054;2023-02-28T01:03:30;5.60;;;3.33;;
72924;SDS011;61070;50.794;7.054;2023-02-28T01:05:55;6.15;;;2.75;;
72924;SDS011;61070;50.794;7.054;2023-02-28T01:08:21;5.38;;;2.50;;
72924;SDS011;61070;50.794;7.054;2023-02-28T01:10:46;6.18;;;2.78;;
72924;SDS011;61070;50.794;7.054;2023-02-28T01:13:12;4.35;;;2.78;;
72924;SDS011;61070;50.794;7.054;2023-02-28T01:15:39;6.03;;;2.70;;
72924;SDS011;61070;50.794;7.054;2023-02-28T01:18:08;8.05;;;2.92;;
72924;SDS011;61070;50.794;7.054;2023-02-28T01:20:33;5.53;;;3.08;;
72924;SDS011;61070;50.794;7.054;2023-02-28T01:23:03;6.05;;;2.47;;
72924;SDS011;61070;50.794;7.054;2023-02-28T01:25:29;5.13;;;2.70;;
72924;SDS011;61070;50.794;7.054;2023-02-28T01:27:54;4.85;;;2.75;;
72924;SDS011;61070;50.794;7.054;2023-02-28T01:30:19;7.03;;;2.78;;
72924;SDS011;61070;50.794;7.054;2023-02-28T01:32:45;8.45;;;2.88;;
72924;SDS011;61070;50.794;7.054;2023-02-28T01:35:10;4.43;;;2.50;;
72924;SDS011;61070;50.794;7.054;2023-02-28T01:37:35;5.05;;;2.72;;
72924;SDS011;61070;50.794;7.054;2023-02-28T01:40:01;8.27;;;3.40;;
72924;SDS011;61070;50.794;7.054;2023-02-28T01:42:26;10.10;;;2.80;;
72924;SDS011;61070;50.794;7.054;2023-02-28T01:44:59;4.50;;;2.45;;
72924;SDS011;61070;50.794;7.054;2023-02-28T01:47:41;4.72;;;2.67;;
72924;SDS011;61070;50.794;7.054;2023-02-28T01:50:12;10.40;;;3.22;;
72924;SDS011;61070;50.794;7.054;2023-02-28T01:52:42;6.25;;;2.58;;
72924;SDS011;61070;50.794;7.054;2023-02-28T01:55:10;6.07;;;3.15;;
72924;SDS011;61070;50.794;7.054;2023-02-28T01:57:38;3.85;;;2.97;;
72924;SDS011;61070;50.794;7.054;2023-02-28T02:00:09;7.43;;;3.05;;
72924;SDS011;61070;50.794;7.054;2023-02-28T02:02:38;7.43;;;3.05;;
72924;SDS011;61070;50.794;7.054;2023-02-28T02:05:07;6.20;;;3.13;;
72924;SDS011;61070;50.794;7.054;2023-02-28T02:07:35;4.93;;;2.70;;
72924;SDS011;61070;50.794;7.054;2023-02-28T02:10:10;5.90;;;2.85;;
72924;SDS011;61070;50.794;7.054;2023-02-28T02:15:56;4.25;;;2.85;;
72924;SDS011;61070;50.794;7.054;2023-02-28T02:21:19;10.60;;;2.95;;
72924;SDS011;61070;50.794;7.054;2023-02-28T02:27:16;6.68;;;3.00;;
72924;SDS011;61070;50.794;7.054;2023-02-28T02:32:41;6.80;;;2.70;;
72924;SDS011;61070;50.794;7.054;2023-02-28T02:35:52;4.88;;;2.85;;
72924;SDS011;61070;50.794;7.054;2023-02-28T02:38:34;9.60;;;2.95;;
72924;SDS011;61070;50.794;7.054;2023-02-28T02:41:11;4.28;;;2.65;;
72924;SDS011;61070;50.794;7.054;2023-02-28T02:43:52;6.07;;;3.15;;
72924;SDS011;61070;50.794;7.054;2023-02-28T02:46:29;7.43;;;3.17;;
72924;SDS011;61070;50.794;7.054;2023-02-28T02:49:03;11.13;;;2.70;;
72924;SDS011;61070;50.794;7.054;2023-02-28T02:51:33;11.98;;;3.80;;
72924;SDS011;61070;50.794;7.054;2023-02-28T02:54:02;5.72;;;2.55;;
72924;SDS011;61070;50.794;7.054;2023-02-28T02:56:48;11.63;;;3.10;;
72924;SDS011;61070;50.794;7.054;2023-02-28T02:59:16;5.45;;;2.80;;
72924;SDS011;61070;50.794;7.054;2023-02-28T03:01:46;6.43;;;3.20;;
72924;SDS011;61070;50.794;7.054;2023-02-28T03:04:19;4.63;;;2.88;;
72924;SDS011;61070;50.794;7.054;2023-02-28T03:06:46;5.18;;;2.88;;
72924;SDS011;61070;50.794;7.054;2023-02-28T03:09:12;10.43;;;3.17;;
72924;SDS011;61070;50.794;7.054;2023-02-28T03:11:38;8.70;;;3.22;;
72924;SDS011;61070;50.794;7.054;2023-02-28T03:22:51;6.93;;;3.13;;
72924;SDS011;61070;50.794;7.054;2023-02-28T03:28:04;13.52;;;2.88;;
72924;SDS011;61070;50.794;7.054;2023-02-28T03:30:41;8.25;;;3.03;;
72924;SDS011;61070;50.794;7.054;2023-02-28T03:33:18;6.90;;;2.88;;
72924;SDS011;61070;50.794;7.054;2023-02-28T03:35:50;7.90;;;2.75;;
72924;SDS011;61070;50.794;7.054;2023-02-28T03:41:06;6.68;;;2.85;;
72924;SDS011;61070;50.794;7.054;2023-02-28T03:43:40;5.43;;;3.00;;
72924;SDS011;61070;50.794;7.054;2023-02-28T03:46:10;6.18;;;3.03;;
72924;SDS011;61070;50.794;7.054;2023-02-28T03:48:42;5.32;;;3.03;;
72924;SDS011;61070;50.794;7.054;2023-02-28T03:51:11;4.63;;;2.80;;
72924;SDS011;61070;50.794;7.054;2023-02-28T03:53:44;5.22;;;2.72;;
72924;SDS011;61070;50.794;7.054;2023-02-28T03:56:19;6.68;;;2.58;;
72924;SDS011;61070;50.794;7.054;2023-02-28T04:01:26;9.52;;;3.22;;
72924;SDS011;61070;50.794;7.054;2023-02-28T04:03:57;6.47;;;2.75;;
72924;SDS011;61070;50.794;7.054;2023-02-28T04:06:22;7.57;;;3.33;;
72924;SDS011;61070;50.794;7.054;2023-02-28T04:08:48;4.65;;;2.85;;
72924;SDS011;61070;50.794;7.054;2023-02-28T04:11:22;9.70;;;3.38;;
72924;SDS011;61070;50.794;7.054;2023-02-28T04:13:54;10.83;;;3.50;;
72924;SDS011;61070;50.794;7.054;2023-02-28T04:16:19;7.28;;;2.83;;
72924;SDS011;61070;50.794;7.054;2023-02-28T04:18:44;6.35;;;3.00;;
72924;SDS011;61070;50.794;7.054;2023-02-28T04:21:10;5.82;;;3.10;;
72924;SDS011;61070;50.794;7.054;2023-02-28T04:23:36;5.07;;;2.83;;
72924;SDS011;61070;50.794;7.054;2023-02-28T04:26:01;5.88;;;4.07;;
72924;SDS011;61070;50.794;7.054;2023-02-28T04:28:27;5.78;;;2.80;;
72924;SDS011;61070;50.794;7.054;2023-02-28T04:30:59;5.07;;;3.10;;
72924;SDS011;61070;50.794;7.054;2023-02-28T04:33:29;5.22;;;2.85;;
72924;SDS011;61070;50.794;7.054;2023-02-28T04:35:59;5.35;;;3.10;;
72924;SDS011;61070;50.794;7.054;2023-02-28T04:38:37;5.93;;;2.88;;
72924;SDS011;61070;50.794;7.054;2023-02-28T04:41:04;10.45;;;3.33;;
72924;SDS011;61070;50.794;7.054;2023-02-28T04:43:30;7.03;;;3.15;;
72924;SDS011;61070;50.794;7.054;2023-02-28T04:45:57;3.75;;;2.97;;
72924;SDS011;61070;50.794;7.054;2023-02-28T04:48:26;5.07;;;2.80;;
72924;SDS011;61070;50.794;7.054;2023-02-28T04:50:53;7.55;;;2.85;;
72924;SDS011;61070;50.794;7.054;2023-02-28T04:53:18;6.95;;;3.33;;
72924;SDS011;61070;50.794;7.054;2023-02-28T04:55:44;6.45;;;2.90;;
72924;SDS011;61070;50.794;7.054;2023-02-28T04:58:10;6.35;;;3.70;;
72924;SDS011;61070;50.794;7.054;2023-02-28T05:00:36;4.93;;;3.28;;
72924;SDS011;61070;50.794;7.054;2023-02-28T05:03:01;9.40;;;4.05;;
72924;SDS011;61070;50.794;7.054;2023-02-28T05:05:27;9.40;;;3.58;;
72924;SDS011;61070;50.794;7.054;2023-02-28T05:07:52;10.88;;;3.05;;
72924;SDS011;61070;50.794;7.054;2023-02-28T05:10:18;6.35;;;3.05;;
72924;SDS011;61070;50.794;7.054;2023-02-28T05:12:43;6.20;;;3.20;;
72924;SDS011;61070;50.794;7.054;2023-02-28T05:15:11;6.03;;;2.85;;
72924;SDS011;61070;50.794;7.054;2023-02-28T05:17:38;6.50;;;2.65;;
72924;SDS011;61070;50.794;7.054;2023-02-28T05:20:04;5.05;;;3.08;;
72924;SDS011;61070;50.794;7.054;2023-02-28T05:22:30;7.60;;;3.38;;
72924;SDS011;61070;50.794;7.054;2023-02-28T05:24:55;11.20;;;3.70;;
72924;SDS011;61070;50.794;7.054;2023-02-28T05:27:21;5.13;;;3.15;;
72924;SDS011;61070;50.794;7.054;2023-02-28T05:29:46;4.65;;;2.83;;
72924;SDS011;61070;50.794;7.054;2023-02-28T05:32:12;4.75;;;2.80;;
72924;SDS011;61070;50.794;7.054;2023-02-28T05:34:38;5.80;;;2.78;;
72924;SDS011;61070;50.794;7.054;2023-02-28T05:37:04;4.43;;;2.55;;
72924;SDS011;61070;50.794;7.054;2023-02-28T05:39:30;6.30;;;2.80;;
72924;SDS011;61070;50.794;7.054;2023-02-28T05:41:56;4.03;;;2.83;;
72924;SDS011;61070;50.794;7.054;2023-02-28T05:44:21;3.60;;;2.60;;
72924;SDS011;61070;50.794;7.054;2023-02-28T05:46:46;3.95;;;2.72;;
72924;SDS011;61070;50.794;7.054;2023-02-28T05:49:11;5.25;;;3.13;;
72924;SDS011;61070;50.794;7.054;2023-02-28T05:51:37;4.60;;;2.85;;
72924;SDS011;61070;50.794;7.054;2023-02-28T05:54:04;4.68;;;2.85;;
72924;SDS011;61070;50.794;7.054;2023-02-28T05:56:31;5.30;;;2.83;;
72924;SDS011;61070;50.794;7.054;2023-02-28T05:58:59;3.83;;;3.13;;
72924;SDS011;61070;50.794;7.054;2023-02-28T06:01:38;3.58;;;3.10;;
72924;SDS011;61070;50.794;7.054;2023-02-28T06:04:13;9.40;;;3.40;;
72924;SDS011;61070;50.794;7.054;2023-02-28T06:06:42;10.07;;;3.75;;
72924;SDS011;61070;50.794;7.054;2023-02-28T06:09:08;6.68;;;3.28;;
72924;SDS011;61070;50.794;7.054;2023-02-28T06:11:34;5.57;;;2.90;;
72924;SDS011;61070;50.794;7.054;2023-02-28T06:13:59;8.98;;;3.88;;
72924;SDS011;61070;50.794;7.054;2023-02-28T06:16:26;5.93;;;3.28;;
72924;SDS011;61070;50.794;7.054;2023-02-28T06:18:53;5.57;;;3.22;;
72924;SDS011;61070;50.794;7.054;2023-02-28T06:21:21;8.98;;;3.45;;
72924;SDS011;61070;50.794;7.054;2023-02-28T06:23:47;8.45;;;4.18;;
72924;SDS011;61070;50.794;7.054;2023-02-28T06:26:12;7.78;;;3.90;;
72924;SDS011;61070;50.794;7.054;2023-02-28T06:28:37;7.93;;;2.97;;
72924;SDS011;61070;50.794;7.054;2023-02-28T06:31:07;7.60;;;3.40;;
72924;SDS011;61070;50.794;7.054;2023-02-28T06:33:34;8.00;;;3.60;;
72924;SDS011;61070;50.794;7.054;2023-02-28T06:35:59;8.20;;;4.10;;
72924;SDS011;61070;50.794;7.054;2023-02-28T06:38:25;12.95;;;4.30;;
72924;SDS011;61070;50.794;7.054;2023-02-28T06:40:53;7.68;;;3.90;;
72924;SDS011;61070;50.794;7.054;2023-02-28T06:43:23;7.70;;;3.15;;
72924;SDS011;61070;50.794;7.054;2023-02-28T06:45:49;7.40;;;3.42;;
72924;SDS011;61070;50.794;7.054;2023-02-28T06:48:15;7.53;;;3.92;;
72924;SDS011;61070;50.794;7.054;2023-02-28T06:50:40;7.05;;;3.20;;
72924;SDS011;61070;50.794;7.054;2023-02-28T06:53:06;5.78;;;3.78;;
72924;SDS011;61070;50.794;7.054;2023-02-28T06:55:31;8.18;;;3.35;;
72924;SDS011;61070;50.794;7.054;2023-02-28T06:57:57;8.75;;;3.35;;
72924;SDS011;61070;50.794;7.054;2023-02-28T07:00:23;7.10;;;3.00;;
72924;SDS011;61070;50.794;7.054;2023-02-28T07:02:48;9.95;;;3.50;;
72924;SDS011;61070;50.794;7.054;2023-02-28T07:05:13;12.82;;;4.45;;
72924;SDS011;61070;50.794;7.054;2023-02-28T07:07:39;8.82;;;3.50;;
72924;SDS011;61070;50.794;7.054;2023-02-28T07:10:09;10.73;;;3.40;;
72924;SDS011;61070;50.794;7.054;2023-02-28T07:12:38;6.13;;;3.25;;
72924;SDS011;61070;50.794;7.054;2023-02-28T07:15:04;9.52;;;3.88;;
72924;SDS011;61070;50.794;7.054;2023-02-28T07:17:30;7.18;;;3.45;;
72924;SDS011;61070;50.794;7.054;2023-02-28T07:19:55;4.82;;;3.13;;
72924;SDS011;61070;50.794;7.054;2023-02-28T07:22:21;6.80;;;3.60;;
72924;SDS011;61070;50.794;7.054;2023-02-28T07:24:46;8.07;;;3.83;;
72924;SDS011;61070;50.794;7.054;2023-02-28T07:27:11;8.23;;;3.42;;
72924;SDS011;61070;50.794;7.054;2023-02-28T07:29:36;11.02;;;3.30;;
72924;SDS011;61070;50.794;7.054;2023-02-28T07:32:03;8.30;;;3.40;;
72924;SDS011;61070;50.794;7.054;2023-02-28T07:34:28;9.02;;;3.55;;
72924;SDS011;61070;50.794;7.054;2023-02-28T07:36:54;8.95;;;4.13;;
72924;SDS011;61070;50.794;7.054;2023-02-28T07:39:19;6.45;;;3.80;;
72924;SDS011;61070;50.794;7.054;2023-02-28T07:41:45;8.93;;;3.78;;
72924;SDS011;61070;50.794;7.054;2023-02-28T07:44:11;7.65;;;4.38;;
72924;SDS011;61070;50.794;7.054;2023-02-28T07:46:36;6.13;;;3.70;;
72924;SDS011;61070;50.794;7.054;2023-02-28T07:49:02;11.65;;;3.53;;
72924;SDS011;61070;50.794;7.054;2023-02-28T07:51:28;13.23;;;5.03;;
72924;SDS011;61070;50.794;7.054;2023-02-28T07:53:55;15.80;;;4.45;;
72924;SDS011;61070;50.794;7.054;2023-02-28T07:56:20;8.55;;;4.07;;
72924;SDS011;61070;50.794;7.054;2023-02-28T07:58:45;6.68;;;4.10;;
72924;SDS011;61070;50.794;7.054;2023-02-28T08:01:11;16.20;;;5.30;;
72924;SDS011;61070;50.794;7.054;2023-02-28T08:03:37;8.30;;;3.78;;
72924;SDS011;61070;50.794;7.054;2023-02-28T08:06:04;12.98;;;4.40;;
72924;SDS011;61070;50.794;7.054;2023-02-28T08:08:30;15.90;;;4.88;;
72924;SDS011;61070;50.794;7.054;2023-02-28T08:10:58;12.98;;;4.05;;
72924;SDS011;61070;50.794;7.054;2023-02-28T08:13:27;7.13;;;4.22;;
72924;SDS011;61070;50.794;7.054;2023-02-28T08:15:53;13.65;;;4.72;;
72924;SDS011;61070;50.794;7.054;2023-02-28T08:18:19;11.32;;;4.90;;
72924;SDS011;61070;50.794;7.054;2023-02-28T08:20:45;13.75;;;4.63;;
72924;SDS011;61070;50.794;7.054;2023-02-28T08:23:10;9.73;;;5.20;;
72924;SDS011;61070;50.794;7.054;2023-02-28T08:25:36;5.57;;;3.75;;
72924;SDS011;61070;50.794;7.054;2023-02-28T08:28:01;4.18;;;2.75;;
72924;SDS011;61070;50.794;7.054;2023-02-28T08:30:26;4.88;;;2.80;;
72924;SDS011;61070;50.794;7.054;2023-02-28T08:32:52;4.97;;;2.50;;
72924;SDS011;61070;50.794;7.054;2023-02-28T08:35:17;7.10;;;2.33;;
72924;SDS011;61070;50.794;7.054;2023-02-28T08:37:42;7.70;;;2.58;;
72924;SDS011;61070;50.794;7.054;2023-02-28T08:40:08;5.40;;;2.75;;
72924;SDS011;61070;50.794;7.054;2023-02-28T08:42:33;6.97;;;2.85;;
72924;SDS011;61070;50.794;7.054;2023-02-28T08:44:59;6.10;;;2.38;;
72924;SDS011;61070;50.794;7.054;2023-02-28T08:47:24;5.75;;;2.70;;
72924;SDS011;61070;50.794;7.054;2023-02-28T08:49:49;4.18;;;2.25;;
72924;SDS011;61070;50.794;7.054;2023-02-28T08:52:15;7.53;;;2.45;;
72924;SDS011;61070;50.794;7.054;2023-02-28T08:54:40;4.72;;;2.35;;
72924;SDS011;61070;50.794;7.054;2023-02-28T08:57:05;4.53;;;2.50;;
72924;SDS011;61070;50.794;7.054;2023-02-28T08:59:31;3.35;;;2.13;;
72924;SDS011;61070;50.794;7.054;2023-02-28T09:01:57;3.10;;;1.98;;
72924;SDS011;61070;50.794;7.054;2023-02-28T09:04:22;3.15;;;2.05;;
72924;SDS011;61070;50.794;7.054;2023-02-28T09:06:47;3.03;;;1.92;;
72924;SDS011;61070;50.794;7.054;2023-02-28T09:09:13;4.88;;;1.85;;
72924;SDS011;61070;50.794;7.054;2023-02-28T09:11:39;4.78;;;1.98;;
72924;SDS011;61070;50.794;7.054;2023-02-28T09:14:04;4.18;;;1.90;;
72924;SDS011;61070;50.794;7.054;2023-02-28T09:16:31;4.40;;;2.00;;
72924;SDS011;61070;50.794;7.054;2023-02-28T09:18:57;4.35;;;2.50;;
72924;SDS011;61070;50.794;7.054;2023-02-28T09:21:22;2.53;;;1.55;;
72924;SDS011;61070;50.794;7.054;2023-02-28T09:23:49;3.30;;;2.17;;
72924;SDS011;61070;50.794;7.054;2023-02-28T09:26:15;5.70;;;2.50;;
72924;SDS011;61070;50.794;7.054;2023-02-28T09:28:43;4.05;;;2.17;;
72924;SDS011;61070;50.794;7.054;2023-02-28T09:31:16;5.45;;;2.03;;
72924;SDS011;61070;50.794;7.054;2023-02-28T09:33:45;3.55;;;1.83;;
72924;SDS011;61070;50.794;7.054;2023-02-28T09:36:11;3.05;;;1.90;;
72924;SDS011;61070;50.794;7.054;2023-02-28T09:38:36;4.45;;;1.92;;
72924;SDS011;61070;50.794;7.054;2023-02-28T09:41:02;2.58;;;1.77;;
72924;SDS011;61070;50.794;7.054;2023-02-28T09:43:35;5.05;;;2.10;;
72924;SDS011;61070;50.794;7.054;2023-02-28T09:49:06;5.10;;;2.22;;
72924;SDS011;61070;50.794;7.054;2023-02-28T09:54:21;2.70;;;1.92;;
72924;SDS011;61070;50.794;7.054;2023-02-28T09:56:56;4.10;;;2.50;;
72924;SDS011;61070;50.794;7.054;2023-02-28T10:05:11;6.65;;;2.22;;
72924;SDS011;61070;50.794;7.054;2023-02-28T10:10:42;4.28;;;2.00;;
72924;SDS011;61070;50.794;7.054;2023-02-28T10:13:06;4.13;;;2.17;;
72924;SDS011;61070;50.794;7.054;2023-02-28T10:15:44;3.95;;;2.03;;
72924;SDS011;61070;50.794;7.054;2023-02-28T10:18:13;5.90;;;2.70;;
72924;SDS011;61070;50.794;7.054;2023-02-28T10:20:44;9.05;;;3.15;;
72924;SDS011;61070;50.794;7.054;2023-02-28T10:23:13;6.70;;;3.28;;
72924;SDS011;61070;50.794;7.054;2023-02-28T10:25:41;5.68;;;2.40;;
72924;SDS011;61070;50.794;7.054;2023-02-28T10:28:13;5.47;;;2.20;;
72924;SDS011;61070;50.794;7.054;2023-02-28T10:30:41;3.55;;;2.03;;
72924;SDS011;61070;50.794;7.054;2023-02-28T10:33:21;1.65;;;1.33;;
72924;SDS011;61070;50.794;7.054;2023-02-28T10:35:53;7.45;;;1.88;;
72924;SDS011;61070;50.794;7.054;2023-02-28T10:38:20;4.50;;;1.50;;
72924;SDS011;61070;50.794;7.054;2023-02-28T10:40:48;3.90;;;2.13;;
72924;SDS011;61070;50.794;7.054;2023-02-28T10:45:40;2.50;;;1.60;;
72924;SDS011;61070;50.794;7.054;2023-02-28T10:58:30;3.10;;;1.48;;
72924;SDS011;61070;50.794;7.054;2023-02-28T11:01:15;4.53;;;2.10;;
72924;SDS011;61070;50.794;7.054;2023-02-28T11:03:45;6.80;;;2.38;;
72924;SDS011;61070;50.794;7.054;2023-02-28T11:06:13;2.60;;;1.92;;
72924;SDS011;61070;50.794;7.054;2023-02-28T11:08:46;3.55;;;2.08;;
72924;SDS011;61070;50.794;7.054;2023-02-28T11:11:13;5.88;;;2.42;;
72924;SDS011;61070;50.794;7.054;2023-02-28T11:13:39;9.73;;;2.10;;
72924;SDS011;61070;50.794;7.054;2023-02-28T11:16:06;14.57;;;2.65;;
72924;SDS011;61070;50.794;7.054;2023-02-28T11:18:54;2.33;;;1.50;;
72924;SDS011;61070;50.794;7.054;2023-02-28T11:21:30;3.30;;;1.92;;
72924;SDS011;61070;50.794;7.054;2023-02-28T11:24:06;4.03;;;2.03;;
72924;SDS011;61070;50.794;7.054;2023-02-28T11:26:45;5.53;;;1.95;;
72924;SDS011;61070;50.794;7.054;2023-02-28T11:29:21;3.97;;;1.70;;
72924;SDS011;61070;50.794;7.054;2023-02-28T11:34:31;3.35;;;2.15;;
72924;SDS011;61070;50.794;7.054;2023-02-28T11:36:58;4.35;;;1.83;;
72924;SDS011;61070;50.794;7.054;2023-02-28T11:39:26;5.20;;;2.38;;
72924;SDS011;61070;50.794;7.054;2023-02-28T11:47:45;2.28;;;1.63;;
72924;SDS011;61070;50.794;7.054;2023-02-28T11:56:01;3.95;;;1.90;;
72924;SDS011;61070;50.794;7.054;2023-02-28T12:03:45;4.40;;;2.10;;
72924;SDS011;61070;50.794;7.054;2023-02-28T12:06:21;8.70;;;2.13;;
72924;SDS011;61070;50.794;7.054;2023-02-28T12:11:56;3.75;;;2.03;;
72924;SDS011;61070;50.794;7.054;2023-02-28T12:14:41;7.25;;;2.10;;
72924;SDS011;61070;50.794;7.054;2023-02-28T12:20:08;2.80;;;2.10;;
72924;SDS011;61070;50.794;7.054;2023-02-28T12:25:39;5.97;;;1.92;;
72924;SDS011;61070;50.794;7.054;2023-02-28T12:28:13;4.63;;;2.45;;
72924;SDS011;61070;50.794;7.054;2023-02-28T12:30:45;3.05;;;1.95;;
72924;SDS011;61070;50.794;7.054;2023-02-28T12:33:18;3.03;;;1.98;;
72924;SDS011;61070;50.794;7.054;2023-02-28T12:35:52;3.05;;;2.25;;
72924;SDS011;61070;50.794;7.054;2023-02-28T12:38:22;3.40;;;2.38;;
72924;SDS011;61070;50.794;7.054;2023-02-28T12:40:52;6.97;;;2.60;;
72924;SDS011;61070;50.794;7.054;2023-02-28T12:43:22;2.75;;;1.48;;
72924;SDS011;61070;50.794;7.054;2023-02-28T12:46:12;4.53;;;1.98;;
72924;SDS011;61070;50.794;7.054;2023-02-28T12:48:59;3.08;;;2.15;;
72924;SDS011;61070;50.794;7.054;2023-02-28T12:51:29;5.10;;;2.63;;
72924;SDS011;61070;50.794;7.054;2023-02-28T12:56:44;2.90;;;2.13;;
72924;SDS011;61070;50.794;7.054;2023-02-28T13:09:59;5.22;;;2.75;;
72924;SDS011;61070;50.794;7.054;2023-02-28T13:12:27;3.05;;;2.25;;
72924;SDS011;61070;50.794;7.054;2023-02-28T13:17:44;4.18;;;2.42;;
72924;SDS011;61070;50.794;7.054;2023-02-28T13:20:19;7.93;;;4.22;;
72924;SDS011;61070;50.794;7.054;2023-02-28T13:22:47;5.20;;;2.60;;
72924;SDS011;61070;50.794;7.054;2023-02-28T13:27:58;3.67;;;1.90;;
72924;SDS011;61070;50.794;7.054;2023-02-28T13:33:35;5.47;;;3.00;;
72924;SDS011;61070;50.794;7.054;2023-02-28T13:44:15;22.23;;;11.40;;
72924;SDS011;61070;50.794;7.054;2023-02-28T13:57:51;25.10;;;6.88;;
72924;SDS011;61070;50.794;7.054;2023-02-28T14:00:46;14.02;;;6.78;;
72924;SDS011;61070;50.794;7.054;2023-02-28T14:06:25;15.68;;;8.10;;
72924;SDS011;61070;50.794;7.054;2023-02-28T14:11:37;7.38;;;3.38;;
72924;SDS011;61070;50.794;7.054;2023-02-28T14:14:05;6.82;;;3.33;;
72924;SDS011;61070;50.794;7.054;2023-02-28T14:19:19;19.48;;;10.32;;
72924;SDS011;61070;50.794;7.054;2023-02-28T14:24:47;8.45;;;4.93;;
72924;SDS011;61070;50.794;7.054;2023-02-28T14:38:34;8.43;;;4.00;;
72924;SDS011;61070;50.794;7.054;2023-02-28T14:41:12;9.65;;;4.80;;
72924;SDS011;61070;50.794;7.054;2023-02-28T14:43:51;10.57;;;3.30;;
72924;SDS011;61070;50.794;7.054;2023-02-28T14:46:22;8.43;;;3.30;;
72924;SDS011;61070;50.794;7.054;2023-02-28T14:48:52;4.55;;;3.35;;
72924;SDS011;61070;50.794;7.054;2023-02-28T14:51:18;9.57;;;5.80;;
72924;SDS011;61070;50.794;7.054;2023-02-28T14:53:48;6.75;;;3.42;;
72924;SDS011;61070;50.794;7.054;2023-02-28T14:56:19;9.00;;;5.38;;
72924;SDS011;61070;50.794;7.054;2023-02-28T14:58:51;11.48;;;4.30;;
72924;SDS011;61070;50.794;7.054;2023-02-28T15:01:18;8.13;;;4.10;;
72924;SDS011;61070;50.794;7.054;2023-02-28T15:03:46;9.50;;;5.00;;
72924;SDS011;61070;50.794;7.054;2023-02-28T15:06:13;10.27;;;5.15;;
72924;SDS011;61070;50.794;7.054;2023-02-28T15:08:41;12.63;;;5.82;;
72924;SDS011;61070;50.794;7.054;2023-02-28T15:11:16;8.15;;;4.05;;
72924;SDS011;61070;50.794;7.054;2023-02-28T15:13:47;8.93;;;3.92;;
72924;SDS011;61070;50.794;7.054;2023-02-28T15:16:37;7.70;;;4.75;;
72924;SDS011;61070;50.794;7.054;2023-02-28T15:19:24;8.40;;;4.72;;
72924;SDS011;61070;50.794;7.054;2023-02-28T15:22:35;5.72;;;3.92;;
72924;SDS011;61070;50.794;7.054;2023-02-28T15:24:45;8.40;;;5.38;;
72924;SDS011;61070;50.794;7.054;2023-02-28T15:27:15;4.10;;;3.33;;
72924;SDS011;61070;50.794;7.054;2023-02-28T15:29:47;7.40;;;3.38;;
72924;SDS011;61070;50.794;7.054;2023-02-28T15:37:56;10.38;;;3.53;;
72924;SDS011;61070;50.794;7.054;2023-02-28T15:40:38;5.90;;;3.70;;
72924;SDS011;61070;50.794;7.054;2023-02-28T15:43:14;7.57;;;4.20;;
72924;SDS011;61070;50.794;7.054;2023-02-28T15:48:31;6.55;;;3.22;;
72924;SDS011;61070;50.794;7.054;2023-02-28T15:51:02;4.25;;;3.35;;
72924;SDS011;61070;50.794;7.054;2023-02-28T15:53:33;5.55;;;3.95;;
72924;SDS011;61070;50.794;7.054;2023-02-28T15:56:07;6.63;;;3.50;;
72924;SDS011;61070;50.794;7.054;2023-02-28T15:59:08;7.45;;;3.45;;
72924;SDS011;61070;50.794;7.054;2023-02-28T16:01:44;8.38;;;4.78;;
72924;SDS011;61070;50.794;7.054;2023-02-28T16:04:17;8.80;;;3.97;;
72924;SDS011;61070;50.794;7.054;2023-02-28T16:09:24;6.25;;;3.90;;
72924;SDS011;61070;50.794;7.054;2023-02-28T16:11:50;5.10;;;3.88;;
72924;SDS011;61070;50.794;7.054;2023-02-28T16:14:19;5.78;;;3.70;;
72924;SDS011;61070;50.794;7.054;2023-02-28T16:16:48;11.50;;;4.55;;
72924;SDS011;61070;50.794;7.054;2023-02-28T16:19:19;7.82;;;4.38;;
72924;SDS011;61070;50.794;7.054;2023-02-28T16:21:44;7.70;;;4.00;;
72924;SDS011;61070;50.794;7.054;2023-02-28T16:24:10;5.95;;;3.67;;
72924;SDS011;61070;50.794;7.054;2023-02-28T16:26:35;8.15;;;3.80;;
72924;SDS011;61070;50.794;7.054;2023-02-28T16:29:04;6.25;;;3.85;;
72924;SDS011;61070;50.794;7.054;2023-02-28T16:31:30;7.30;;;4.38;;
72924;SDS011;61070;50.794;7.054;2023-02-28T16:33:58;4.60;;;3.50;;
72924;SDS011;61070;50.794;7.054;2023-02-28T16:36:23;7.30;;;3.53;;
72924;SDS011;61070;50.794;7.054;2023-02-28T16:38:53;8.23;;;3.78;;
72924;SDS011;61070;50.794;7.054;2023-02-28T16:41:20;9.20;;;3.58;;
72924;SDS011;61070;50.794;7.054;2023-02-28T16:43:47;8.35;;;4.05;;
72924;SDS011;61070;50.794;7.054;2023-02-28T16:46:15;15.40;;;6.55;;
72924;SDS011;61070;50.794;7.054;2023-02-28T16:48:41;10.13;;;5.38;;
72924;SDS011;61070;50.794;7.054;2023-02-28T16:51:11;8.18;;;4.20;;
72924;SDS011;61070;50.794;7.054;2023-02-28T16:53:40;10.02;;;4.38;;
72924;SDS011;61070;50.794;7.054;2023-02-28T16:56:08;9.27;;;3.92;;
72924;SDS011;61070;50.794;7.054;2023-02-28T16:58:39;5.38;;;3.45;;
72924;SDS011;61070;50.794;7.054;2023-02-28T17:01:04;9.82;;;4.10;;
72924;SDS011;61070;50.794;7.054;2023-02-28T17:03:29;5.80;;;3.30;;
72924;SDS011;61070;50.794;7.054;2023-02-28T17:05:55;5.78;;;4.00;;
72924;SDS011;61070;50.794;7.054;2023-02-28T17:08:20;5.45;;;3.42;;
72924;SDS011;61070;50.794;7.054;2023-02-28T17:10:45;11.98;;;4.05;;
72924;SDS011;61070;50.794;7.054;2023-02-28T17:13:11;10.80;;;4.05;;
72924;SDS011;61070;50.794;7.054;2023-02-28T17:15:36;10.07;;;3.88;;
72924;SDS011;61070;50.794;7.054;2023-02-28T17:18:02;8.05;;;4.05;;
72924;SDS011;61070;50.794;7.054;2023-02-28T17:20:28;10.57;;;4.18;;
72924;SDS011;61070;50.794;7.054;2023-02-28T17:22:54;7.35;;;4.03;;
72924;SDS011;61070;50.794;7.054;2023-02-28T17:25:20;8.65;;;4.05;;
72924;SDS011;61070;50.794;7.054;2023-02-28T17:27:45;6.60;;;3.63;;
72924;SDS011;61070;50.794;7.054;2023-02-28T17:30:16;10.05;;;3.70;;
72924;SDS011;61070;50.794;7.054;2023-02-28T17:32:43;9.15;;;3.90;;
72924;SDS011;61070;50.794;7.054;2023-02-28T17:35:09;7.57;;;4.05;;